createdAt,value
2019-02-20T00:01:52.177Z,33.90
2019-02-20T00:04:21.468Z,25.08
2019-02-20T00:06:50.763Z,26.05
2019-02-20T00:09:20.327Z,23.73
2019-02-20T00:11:49.616Z,30.75
2019-02-20T00:14:18.906Z,29.10
2019-02-20T00:16:48.306Z,20.50
2019-02-20T00:19:17.666Z,23.18
2019-02-20T00:21:47.054Z,30.25
2019-02-20T00:24:16.385Z,28.62
2019-02-20T00:26:45.899Z,25.92
2019-02-20T00:29:15.292Z,31.10
2019-02-20T00:31:44.746Z,32.00
2019-02-20T00:34:14.144Z,27.48
2019-02-20T00:36:43.457Z,27.58
2019-02-20T00:39:12.845Z,24.67
2019-02-20T00:41:42.142Z,31.90
2019-02-20T00:44:35.981Z,30.10
2019-02-20T00:47:22.907Z,25.77
2019-02-20T00:49:52.616Z,30.45
2019-02-20T00:52:31.743Z,28.12
2019-02-20T00:55:01.043Z,28.85
2019-02-20T00:57:30.637Z,25.65
2019-02-20T00:59:59.986Z,24.30
2019-02-20T01:02:29.380Z,27.27
2019-02-20T01:04:58.742Z,36.42
2019-02-20T01:07:28.129Z,29.27
2019-02-20T01:09:57.485Z,25.32
2019-02-20T01:12:26.830Z,25.82
2019-02-20T01:14:56.132Z,26.55
2019-02-20T01:17:25.504Z,27.22
2019-02-20T01:19:54.812Z,27.35
2019-02-20T01:22:24.173Z,32.80
2019-02-20T01:24:53.763Z,33.10
2019-02-20T01:27:23.437Z,36.70
2019-02-20T01:29:52.782Z,34.38
2019-02-20T01:32:22.541Z,34.08
2019-02-20T01:34:51.893Z,30.82
2019-02-20T01:37:21.333Z,31.10
2019-02-20T01:39:50.794Z,32.58
2019-02-20T01:42:20.161Z,29.45
2019-02-20T01:44:49.540Z,27.13
2019-02-20T01:47:18.946Z,34.63
2019-02-20T01:49:48.283Z,35.43
2019-02-20T01:52:17.675Z,28.60
2019-02-20T01:54:46.994Z,29.67
2019-02-20T01:57:16.284Z,26.68
2019-02-20T01:59:45.641Z,31.65
2019-02-20T02:02:15.029Z,33.15
2019-02-20T02:04:44.409Z,29.07
2019-02-20T02:07:13.768Z,33.75
2019-02-20T02:09:43.173Z,29.27
2019-02-20T02:12:12.540Z,30.55
2019-02-20T02:14:41.941Z,24.98
2019-02-20T02:17:11.412Z,35.75
2019-02-20T02:19:40.733Z,24.37
2019-02-20T02:22:10.041Z,31.37
2019-02-20T02:24:39.578Z,33.65
2019-02-20T02:27:09.274Z,28.67
2019-02-20T02:29:38.661Z,26.10
2019-02-20T02:32:07.995Z,28.40
2019-02-20T02:34:37.359Z,27.60
2019-02-20T02:37:06.726Z,27.80
2019-02-20T02:39:36.127Z,24.65
2019-02-20T02:42:05.490Z,22.50
2019-02-20T02:44:34.779Z,19.90
2019-02-20T02:47:04.195Z,20.75
2019-02-20T02:49:33.563Z,32.80
2019-02-20T02:52:03.182Z,20.57
2019-02-20T02:54:32.505Z,27.20
2019-02-20T02:57:01.951Z,29.70
2019-02-20T02:59:31.346Z,22.67
2019-02-20T03:02:00.769Z,26.00
2019-02-20T03:04:30.142Z,26.90
2019-02-20T03:06:59.456Z,25.80
2019-02-20T03:09:28.806Z,26.75
2019-02-20T03:11:58.126Z,27.50
2019-02-20T03:14:27.422Z,24.05
2019-02-20T03:16:56.765Z,25.85
2019-02-20T03:19:26.054Z,26.90
2019-02-20T03:21:55.486Z,26.93
2019-02-20T03:24:24.872Z,27.13
2019-02-20T03:26:54.297Z,36.00
2019-02-20T03:29:23.601Z,29.37
2019-02-20T03:31:53.060Z,33.18
2019-02-20T03:34:22.438Z,29.27
2019-02-20T03:36:51.987Z,27.65
2019-02-20T03:39:21.330Z,28.10
2019-02-20T03:41:50.734Z,28.95
2019-02-20T03:44:20.055Z,28.50
2019-02-20T03:46:49.387Z,27.17
2019-02-20T03:51:55.677Z,23.60
2019-02-20T03:54:24.972Z,26.95
2019-02-20T03:56:54.348Z,21.87
2019-02-20T03:59:23.834Z,27.02
2019-02-20T04:01:53.288Z,26.60
2019-02-20T04:04:22.878Z,22.27
2019-02-20T04:06:52.197Z,31.05
2019-02-20T04:09:21.496Z,31.97
2019-02-20T04:11:50.805Z,26.73
2019-02-20T04:14:20.229Z,32.42
2019-02-20T04:16:49.644Z,26.10
2019-02-20T04:19:18.925Z,22.62
2019-02-20T04:21:48.252Z,27.60
2019-02-20T04:24:17.562Z,25.62
2019-02-20T04:26:46.853Z,27.87
2019-02-20T04:29:16.298Z,39.05
2019-02-20T04:31:45.690Z,31.30
2019-02-20T04:34:15.077Z,32.35
2019-02-20T04:36:44.414Z,27.98
2019-02-20T04:39:13.730Z,27.65
2019-02-20T04:41:43.092Z,29.82
2019-02-20T04:44:12.515Z,35.08
2019-02-20T04:46:41.803Z,26.30
2019-02-20T04:49:11.197Z,33.42
2019-02-20T04:51:40.621Z,25.25
2019-02-20T04:54:13.404Z,24.75
2019-02-20T04:56:40.938Z,25.92
2019-02-20T04:59:10.312Z,27.35
2019-02-20T05:01:39.658Z,30.32
2019-02-20T05:04:09.021Z,23.98
2019-02-20T05:06:38.417Z,32.20
2019-02-20T05:09:07.944Z,26.00
2019-02-20T05:11:37.265Z,21.80
2019-02-20T05:14:06.617Z,25.50
2019-02-20T05:16:35.999Z,26.35
2019-02-20T05:19:05.393Z,24.07
2019-02-20T05:21:34.738Z,31.73
2019-02-20T05:24:04.122Z,23.47
2019-02-20T05:26:33.518Z,31.75
2019-02-20T05:29:03.069Z,31.05
2019-02-20T05:31:32.497Z,34.73
2019-02-20T05:34:01.821Z,34.63
2019-02-20T05:36:31.333Z,32.58
2019-02-20T05:39:00.884Z,29.12
2019-02-20T05:41:30.256Z,42.78
2019-02-20T05:43:59.817Z,41.40
2019-02-20T05:46:29.217Z,40.33
2019-02-20T05:48:58.611Z,38.38
2019-02-20T05:51:28.144Z,40.78
2019-02-20T05:53:57.630Z,37.23
2019-02-20T05:56:26.930Z,36.88
2019-02-20T05:58:56.277Z,41.42
2019-02-20T06:01:25.713Z,36.20
2019-02-20T06:03:55.156Z,38.45
2019-02-20T06:06:24.539Z,40.65
2019-02-20T06:08:53.896Z,40.30
2019-02-20T06:11:23.284Z,41.53
2019-02-20T06:13:52.754Z,36.30
2019-02-20T06:16:23.445Z,41.08
2019-02-20T06:18:52.781Z,41.48
2019-02-20T06:21:22.242Z,46.58
2019-02-20T06:23:51.548Z,42.05
2019-02-20T06:26:20.980Z,47.65
2019-02-20T06:28:50.598Z,39.95
2019-02-20T06:31:19.885Z,48.08
2019-02-20T06:33:49.455Z,49.65
2019-02-20T06:36:18.769Z,54.50
2019-02-20T06:38:48.309Z,42.20
2019-02-20T06:41:17.690Z,47.33
2019-02-20T06:43:48.097Z,44.30
2019-02-20T06:46:17.773Z,41.30
2019-02-20T06:48:47.152Z,50.88
2019-02-20T06:51:16.545Z,47.23
2019-02-20T06:53:45.947Z,42.43
2019-02-20T06:56:15.375Z,49.05
2019-02-20T06:58:44.725Z,44.73
2019-02-20T07:01:14.110Z,41.80
2019-02-20T07:03:43.500Z,52.08
2019-02-20T07:06:43.889Z,45.60
2019-02-20T07:09:49.162Z,49.60
2019-02-20T07:12:59.983Z,48.10
2019-02-20T07:16:13.394Z,47.93
2019-02-20T07:19:32.212Z,43.92
2019-02-20T07:22:23.262Z,47.25
2019-02-20T07:25:18.590Z,46.25
2019-02-20T07:28:13.378Z,46.18
2019-02-20T07:30:43.197Z,46.83
2019-02-20T07:33:12.664Z,49.33
2019-02-20T07:35:42.168Z,46.88
2019-02-20T07:38:11.623Z,44.93
2019-02-20T07:40:40.984Z,45.10
2019-02-20T07:43:10.337Z,40.12
2019-02-20T07:45:39.984Z,46.05
2019-02-20T07:48:09.345Z,55.17
2019-02-20T07:50:38.649Z,48.92
2019-02-20T07:53:08.113Z,39.42
2019-02-20T07:55:37.524Z,45.48
2019-02-20T07:58:07.267Z,43.83
2019-02-20T08:00:36.906Z,45.30
2019-02-20T08:03:06.382Z,41.35
2019-02-20T08:05:36.088Z,43.15
2019-02-20T08:08:05.618Z,41.75
2019-02-20T08:10:34.917Z,40.23
2019-02-20T08:13:04.397Z,41.73
2019-02-20T08:15:33.981Z,43.50
2019-02-20T08:18:03.304Z,37.40
2019-02-20T08:20:32.612Z,38.13
2019-02-20T08:23:01.999Z,39.60
2019-02-20T08:25:31.357Z,39.03
2019-02-20T08:28:00.756Z,44.20
2019-02-20T08:30:30.298Z,44.10
2019-02-20T08:32:59.620Z,38.17
2019-02-20T08:35:28.919Z,37.53
2019-02-20T08:37:58.678Z,47.83
2019-02-20T08:40:28.034Z,39.53
2019-02-20T08:42:57.334Z,40.50
2019-02-20T08:45:27.001Z,45.28
2019-02-20T08:47:56.569Z,40.12
2019-02-20T08:50:25.958Z,33.58
2019-02-20T08:52:55.372Z,40.17
2019-02-20T08:55:31.738Z,39.83
2019-02-20T08:57:55.733Z,33.65
2019-02-20T09:00:25.470Z,32.88
2019-02-20T09:02:54.782Z,39.05
2019-02-20T09:05:24.093Z,39.53
2019-02-20T09:07:53.677Z,36.10
2019-02-20T09:10:22.994Z,34.33
2019-02-20T09:12:52.290Z,30.35
2019-02-20T09:15:21.725Z,32.10
2019-02-20T09:17:51.393Z,32.15
2019-02-20T09:20:20.665Z,34.98
2019-02-20T09:22:50.141Z,32.78
2019-02-20T09:25:20.183Z,34.58
2019-02-20T09:27:49.576Z,26.70
2019-02-20T09:30:27.946Z,31.65
2019-02-20T09:32:49.977Z,25.88
2019-02-20T09:35:19.279Z,23.57
2019-02-20T09:37:48.744Z,29.87
2019-02-20T09:40:18.034Z,31.52
2019-02-20T09:42:47.889Z,32.73
2019-02-20T09:45:17.207Z,25.85
2019-02-20T09:47:46.624Z,31.42
2019-02-20T09:50:16.257Z,30.15
2019-02-20T09:52:51.907Z,22.58
2019-02-20T09:55:16.545Z,28.57
2019-02-20T09:57:45.971Z,27.82
2019-02-20T10:00:16.107Z,26.37
2019-02-20T10:02:47.262Z,21.10
2019-02-20T10:05:16.437Z,20.77
2019-02-20T10:07:45.750Z,22.60
2019-02-20T10:10:15.222Z,23.47
2019-02-20T10:12:44.502Z,20.90
2019-02-20T10:15:14.636Z,21.82
2019-02-20T10:17:44.002Z,17.37
2019-02-20T10:20:13.383Z,14.58
2019-02-20T10:22:42.994Z,19.95
2019-02-20T10:25:12.437Z,14.87
2019-02-20T10:27:41.734Z,18.40
2019-02-20T10:30:13.991Z,14.63
2019-02-20T10:32:43.300Z,13.48
2019-02-20T10:35:13.366Z,18.45
2019-02-20T10:37:43.102Z,16.52
2019-02-20T10:40:12.523Z,14.45
2019-02-20T10:42:41.834Z,16.45
2019-02-20T10:45:11.224Z,18.25
2019-02-20T10:47:40.553Z,14.40
2019-02-20T10:50:10.149Z,16.20
2019-02-20T10:52:39.458Z,18.80
2019-02-20T10:55:09.166Z,20.92
2019-02-20T10:57:38.475Z,14.68
2019-02-20T11:00:23.568Z,16.67
2019-02-20T11:02:44.937Z,18.57
2019-02-20T11:05:14.366Z,16.87
2019-02-20T11:07:44.124Z,14.98
2019-02-20T11:10:13.493Z,16.73
2019-02-20T11:12:42.870Z,20.37
2019-02-20T11:15:13.147Z,20.02
2019-02-20T11:17:42.709Z,15.23
2019-02-20T11:20:13.653Z,16.23
2019-02-20T11:22:43.009Z,17.27
2019-02-20T11:25:12.336Z,19.80
2019-02-20T11:27:41.684Z,19.27
2019-02-20T11:30:14.747Z,15.08
2019-02-20T11:32:44.596Z,18.00
2019-02-20T11:35:13.977Z,14.95
2019-02-20T11:37:43.382Z,18.25
2019-02-20T11:40:13.298Z,16.93
2019-02-20T11:42:44.522Z,13.98
2019-02-20T11:45:14.018Z,15.35
2019-02-20T11:47:43.502Z,18.17
2019-02-20T11:50:13.137Z,17.50
2019-02-20T11:52:45.089Z,18.05
2019-02-20T11:55:14.358Z,17.45
2019-02-20T11:57:43.801Z,14.70
2019-02-20T12:00:13.262Z,15.60
2019-02-20T12:02:42.691Z,22.00
2019-02-20T12:05:12.354Z,18.32
2019-02-20T12:07:41.781Z,15.40
2019-02-20T12:10:12.647Z,16.40
2019-02-20T12:12:42.260Z,17.75
2019-02-20T12:15:12.112Z,15.58
2019-02-20T12:17:41.618Z,17.37
2019-02-20T12:20:11.546Z,20.85
2019-02-20T12:22:40.980Z,17.20
2019-02-20T12:25:10.743Z,20.37
2019-02-20T12:27:40.635Z,17.40
2019-02-20T12:30:10.193Z,17.75
2019-02-20T12:32:39.651Z,21.50
2019-02-20T12:35:09.069Z,22.22
2019-02-20T12:37:38.485Z,16.82
2019-02-20T12:40:07.976Z,21.17
2019-02-20T12:42:37.398Z,21.48
2019-02-20T12:45:06.943Z,20.57
2019-02-20T12:47:36.399Z,16.50
2019-02-20T12:50:06.157Z,16.50
2019-02-20T12:52:35.522Z,21.45
2019-02-20T12:55:05.310Z,19.15
2019-02-20T12:57:34.659Z,19.37
2019-02-20T13:00:04.141Z,18.30
2019-02-20T13:02:33.588Z,21.48
2019-02-20T13:05:03.225Z,21.05
2019-02-20T13:07:33.219Z,21.82
2019-02-20T13:10:02.550Z,22.85
2019-02-20T13:12:32.184Z,12.10
2019-02-20T13:15:03.666Z,16.77
2019-02-20T13:17:32.752Z,15.28
2019-02-20T13:20:02.512Z,15.35
2019-02-20T13:22:31.956Z,14.43
2019-02-20T13:25:01.310Z,13.45
2019-02-20T13:27:30.846Z,15.93
2019-02-20T13:30:00.273Z,16.17
2019-02-20T13:32:32.625Z,12.20
2019-02-20T13:35:02.051Z,19.75
2019-02-20T13:37:33.270Z,12.90
2019-02-20T13:40:02.688Z,12.98
2019-02-20T13:42:32.246Z,12.65
2019-02-20T13:45:01.546Z,14.03
2019-02-20T13:47:30.924Z,16.65
2019-02-20T13:50:00.518Z,15.43
2019-02-20T13:52:31.251Z,9.48
2019-02-20T13:55:01.282Z,13.68
2019-02-20T13:57:30.698Z,14.78
2019-02-20T14:00:00.362Z,11.83
2019-02-20T14:02:29.923Z,8.20
2019-02-20T14:04:59.439Z,12.47
2019-02-20T14:07:28.815Z,12.00
2019-02-20T14:09:58.385Z,9.50
2019-02-20T14:12:27.795Z,8.23
2019-02-20T14:14:57.393Z,8.45
2019-02-20T14:17:27.035Z,8.30
2019-02-20T14:19:56.588Z,7.17
2019-02-20T14:22:25.924Z,7.45
2019-02-20T14:24:55.597Z,10.18
2019-02-20T14:27:24.960Z,9.35
2019-02-20T14:29:54.295Z,9.10
2019-02-20T14:32:23.594Z,9.70
2019-02-20T14:34:52.985Z,7.08
2019-02-20T14:37:22.378Z,11.78
2019-02-20T14:39:51.798Z,8.45
2019-02-20T14:42:21.125Z,14.03
2019-02-20T14:44:50.471Z,9.48
2019-02-20T14:47:19.767Z,10.63
2019-02-20T14:49:49.109Z,10.72
2019-02-20T14:52:18.705Z,10.95
2019-02-20T14:54:48.055Z,13.00
2019-02-20T14:57:19.826Z,11.15
2019-02-20T14:59:49.243Z,12.50
2019-02-20T15:02:18.622Z,10.63
2019-02-20T15:04:47.966Z,10.70
2019-02-20T15:07:17.286Z,11.08
2019-02-20T15:09:47.081Z,13.65
2019-02-20T15:12:16.810Z,9.55
2019-02-20T15:14:47.589Z,9.48
2019-02-20T15:17:17.216Z,10.15
2019-02-20T15:19:46.784Z,11.12
2019-02-20T15:22:16.119Z,12.00
2019-02-20T15:24:45.483Z,10.98
2019-02-20T15:27:15.157Z,9.35
2019-02-20T15:29:44.632Z,9.55
2019-02-20T15:32:13.998Z,11.38
2019-02-20T15:34:43.424Z,10.20
2019-02-20T15:37:12.790Z,8.90
2019-02-20T15:39:42.185Z,11.55
2019-02-20T15:42:11.861Z,13.62
2019-02-20T15:44:41.149Z,11.70
2019-02-20T15:47:10.550Z,10.53
2019-02-20T15:49:40.084Z,7.83
2019-02-20T15:52:09.475Z,13.08
2019-02-20T15:54:38.839Z,8.08
2019-02-20T15:57:10.633Z,13.45
2019-02-20T15:59:40.091Z,9.10
2019-02-20T16:02:09.499Z,7.67
2019-02-20T16:04:38.959Z,7.62
2019-02-20T16:07:08.349Z,11.80
2019-02-20T16:09:37.673Z,10.35
2019-02-20T16:12:07.573Z,10.93
2019-02-20T16:14:36.843Z,6.12
2019-02-20T16:17:06.144Z,10.28
2019-02-20T16:19:35.698Z,12.47
2019-02-20T16:22:05.130Z,13.90
2019-02-20T16:24:34.510Z,8.13
2019-02-20T16:27:03.849Z,11.33
2019-02-20T16:29:33.202Z,10.10
2019-02-20T16:32:02.626Z,10.72
2019-02-20T16:34:32.179Z,9.03
2019-02-20T16:37:01.558Z,8.28
2019-02-20T16:39:30.984Z,8.55
2019-02-20T16:42:00.490Z,6.95
2019-02-20T16:44:30.103Z,9.80
2019-02-20T16:46:59.437Z,9.48
2019-02-20T16:49:28.969Z,11.33
2019-02-20T16:51:58.440Z,12.60
2019-02-20T16:54:27.768Z,7.03
2019-02-20T16:56:57.197Z,11.48
2019-02-20T16:59:26.807Z,11.78
2019-02-20T17:01:56.178Z,8.85
2019-02-20T17:04:25.602Z,12.70
2019-02-20T17:06:54.980Z,10.58
2019-02-20T17:09:24.451Z,13.15
2019-02-20T17:11:54.067Z,13.72
2019-02-20T17:14:24.062Z,17.12
2019-02-20T17:16:53.397Z,11.05
2019-02-20T17:19:22.871Z,11.15
2019-02-20T17:21:52.301Z,16.52
2019-02-20T17:24:21.709Z,14.18
2019-02-20T17:26:51.179Z,10.80
2019-02-20T17:29:20.947Z,17.12
2019-02-20T17:31:50.422Z,15.45
2019-02-20T17:34:20.456Z,14.68
2019-02-20T17:36:49.796Z,15.50
2019-02-20T17:39:20.831Z,15.72
2019-02-20T17:41:50.283Z,10.30
2019-02-20T17:44:19.902Z,12.85
2019-02-20T17:46:49.187Z,13.80
2019-02-20T17:49:18.518Z,15.80
2019-02-20T17:51:47.913Z,17.62
2019-02-20T17:54:17.309Z,14.58
2019-02-20T17:56:46.913Z,19.40
2019-02-20T17:59:16.566Z,16.15
2019-02-20T18:01:45.988Z,13.25
2019-02-20T18:04:15.322Z,19.15
2019-02-20T18:06:44.639Z,16.80
2019-02-20T18:09:14.302Z,16.10
2019-02-20T18:11:43.974Z,21.17
2019-02-20T18:14:13.354Z,19.67
2019-02-20T18:16:42.722Z,20.62
2019-02-20T18:19:12.039Z,17.48
2019-02-20T18:21:41.393Z,19.80
2019-02-20T18:24:10.693Z,16.20
2019-02-20T18:26:40.022Z,22.20
2019-02-20T18:29:09.406Z,19.45
2019-02-20T18:31:38.866Z,23.60
2019-02-20T18:34:08.368Z,22.60
2019-02-20T18:36:37.750Z,22.90
2019-02-20T18:39:08.140Z,24.85
2019-02-20T18:41:37.683Z,25.30
2019-02-20T18:44:07.026Z,23.70
2019-02-20T18:46:36.457Z,24.15
2019-02-20T18:49:05.930Z,23.55
2019-02-20T18:51:35.249Z,25.32
2019-02-20T18:54:04.575Z,21.25
2019-02-20T18:56:34.221Z,27.17
2019-02-20T18:59:03.759Z,22.25
2019-02-20T19:01:33.132Z,27.17
2019-02-20T19:04:02.536Z,33.23
2019-02-20T19:06:31.847Z,38.98
2019-02-20T19:09:06.698Z,30.57
2019-02-20T19:12:17.325Z,29.42
2019-02-20T19:15:16.940Z,40.78
2019-02-20T19:18:45.833Z,29.42
2019-02-20T19:21:31.819Z,30.10
2019-02-20T19:25:06.700Z,37.00
2019-02-20T19:27:59.234Z,30.97
2019-02-20T19:31:09.670Z,30.72
2019-02-20T19:34:28.226Z,34.40
2019-02-20T19:37:38.088Z,30.37
2019-02-20T19:40:45.738Z,33.13
2019-02-20T19:43:53.268Z,29.42
2019-02-20T19:46:45.194Z,33.10
2019-02-20T19:49:42.833Z,29.23
2019-02-20T19:52:27.021Z,26.62
2019-02-20T19:55:08.738Z,31.80
2019-02-20T19:57:48.274Z,28.98
2019-02-20T20:00:43.516Z,29.67
2019-02-20T20:04:08.889Z,30.32
2019-02-20T20:07:19.430Z,28.85
2019-02-20T20:09:58.609Z,27.85
2019-02-20T20:13:14.510Z,32.05
2019-02-20T20:16:12.022Z,34.05
2019-02-20T20:19:40.520Z,31.60
2019-02-20T20:22:46.660Z,33.15
2019-02-20T20:25:43.931Z,29.10
2019-02-20T20:28:52.849Z,29.57
2019-02-20T20:31:49.984Z,30.50
2019-02-20T20:34:37.948Z,33.70
2019-02-20T20:37:35.042Z,35.92
2019-02-20T20:40:25.862Z,38.35
2019-02-20T20:43:36.263Z,36.30
2019-02-20T20:46:29.168Z,36.45
2019-02-20T20:49:13.254Z,34.10
2019-02-20T20:52:39.171Z,36.53
2019-02-20T20:55:51.154Z,31.10
2019-02-20T20:59:17.624Z,35.20
2019-02-20T21:02:08.493Z,38.10
2019-02-20T21:05:28.312Z,38.65
2019-02-20T21:08:08.627Z,39.38
2019-02-20T21:11:21.597Z,34.50
2019-02-20T21:14:12.310Z,40.15
2019-02-20T21:17:17.463Z,38.35
2019-02-20T21:20:46.562Z,39.38
2019-02-20T21:23:53.619Z,36.77
2019-02-20T21:26:46.115Z,36.00
2019-02-20T21:29:59.306Z,38.10
2019-02-20T21:32:51.749Z,36.65
2019-02-20T21:36:04.261Z,39.35
2019-02-20T21:39:28.625Z,42.88
2019-02-20T21:42:43.658Z,40.17
2019-02-20T21:45:29.720Z,39.15
2019-02-20T21:48:13.628Z,38.20
2019-02-20T21:51:13.213Z,39.60
2019-02-20T21:54:07.530Z,40.48
2019-02-20T21:57:15.231Z,40.03
2019-02-20T22:00:14.323Z,40.05
2019-02-20T22:02:59.281Z,37.65
2019-02-20T22:06:18.208Z,45.58
2019-02-20T22:09:12.594Z,43.48
2019-02-20T22:12:10.747Z,36.38
2019-02-20T22:15:17.057Z,36.35
2019-02-20T22:18:13.074Z,42.00
2019-02-20T22:21:10.883Z,44.05
2019-02-20T22:24:10.607Z,48.95
2019-02-20T22:26:57.084Z,46.13
2019-02-20T22:30:06.937Z,41.77
2019-02-20T22:33:03.242Z,47.67
2019-02-20T22:36:12.552Z,45.25
2019-02-20T22:38:54.603Z,50.75
2019-02-20T22:41:45.217Z,52.00
2019-02-20T22:45:02.221Z,46.35
2019-02-20T22:48:10.309Z,53.85
2019-02-20T22:51:08.372Z,52.33
2019-02-20T22:54:18.765Z,41.30
2019-02-20T22:57:24.902Z,42.23
2019-02-20T23:00:34.627Z,42.60
2019-02-20T23:03:27.445Z,42.50
2019-02-20T23:06:37.987Z,43.85
2019-02-20T23:09:38.782Z,40.65
2019-02-20T23:12:14.879Z,38.08
2019-02-20T23:14:57.670Z,38.73
2019-02-20T23:17:27.734Z,45.63
2019-02-20T23:19:57.100Z,39.70
2019-02-20T23:22:26.407Z,42.53
2019-02-20T23:24:56.027Z,39.90
2019-02-20T23:27:25.447Z,42.50
2019-02-20T23:29:54.764Z,40.73
2019-02-20T23:32:24.122Z,40.83
2019-02-20T23:34:53.411Z,40.55
2019-02-20T23:37:23.004Z,40.55
2019-02-20T23:39:52.649Z,37.80
2019-02-20T23:42:21.965Z,36.00
2019-02-20T23:44:51.349Z,39.67
2019-02-20T23:47:20.758Z,36.17
2019-02-20T23:49:50.069Z,41.73
2019-02-20T23:52:19.374Z,39.25
2019-02-20T23:54:48.783Z,40.78
2019-02-20T23:57:18.136Z,38.30
2019-02-20T23:59:47.455Z,38.73
